createdAt,value
2022-10-20T00:00:41.006Z,997.97
2022-10-20T00:01:40.938Z,997.96
2022-10-20T00:02:40.921Z,997.93
2022-10-20T00:03:40.719Z,997.99
2022-10-20T00:04:40.618Z,997.96
2022-10-20T00:05:40.533Z,998.00
2022-10-20T00:06:40.436Z,997.98
2022-10-20T00:07:40.343Z,997.98
2022-10-20T00:08:40.273Z,997.93
2022-10-20T00:09:40.152Z,997.91
2022-10-20T00:10:40.057Z,997.87
2022-10-20T00:11:39.969Z,997.88
2022-10-20T00:12:39.904Z,997.93
2022-10-20T00:13:39.780Z,997.93
2022-10-20T00:14:39.681Z,997.91
2022-10-20T00:15:39.587Z,997.87
2022-10-20T00:16:39.493Z,997.87
2022-10-20T00:17:39.421Z,997.90
2022-10-20T00:18:39.308Z,997.81
2022-10-20T00:19:39.208Z,997.84
2022-10-20T00:20:39.117Z,997.85
2022-10-20T00:21:39.026Z,997.81
2022-10-20T00:22:39.112Z,997.77
2022-10-20T00:23:38.841Z,997.75
2022-10-20T00:24:38.743Z,997.75
2022-10-20T00:25:38.652Z,997.72
2022-10-20T00:26:38.561Z,997.71
2022-10-20T00:27:38.457Z,997.69
2022-10-20T00:28:38.367Z,997.67
2022-10-20T00:29:38.274Z,997.63
2022-10-20T00:30:38.185Z,997.61
2022-10-20T00:31:38.084Z,997.61
2022-10-20T00:32:38.526Z,997.53
2022-10-20T00:33:37.899Z,997.48
2022-10-20T00:34:37.804Z,997.47
2022-10-20T00:35:37.714Z,997.47
2022-10-20T00:36:37.611Z,997.47
2022-10-20T00:37:37.532Z,997.45
2022-10-20T00:38:37.427Z,997.44
2022-10-20T00:39:37.331Z,997.47
2022-10-20T00:40:37.236Z,997.45
2022-10-20T00:41:37.150Z,997.34
2022-10-20T00:42:37.549Z,997.33
2022-10-20T00:43:36.954Z,997.34
2022-10-20T00:44:36.867Z,997.34
2022-10-20T00:45:36.769Z,997.30
2022-10-20T00:46:36.680Z,997.34
2022-10-20T00:47:36.629Z,997.29
2022-10-20T00:48:36.491Z,997.30
2022-10-20T00:49:36.399Z,997.28
2022-10-20T00:50:36.303Z,997.23
2022-10-20T00:51:36.207Z,997.22
2022-10-20T00:52:36.473Z,997.12
2022-10-20T00:53:36.021Z,997.17
2022-10-20T00:54:35.936Z,997.09
2022-10-20T00:55:35.832Z,997.06
2022-10-20T00:56:35.735Z,997.03
2022-10-20T00:57:35.997Z,997.07
2022-10-20T00:58:35.551Z,997.07
2022-10-20T00:59:35.456Z,997.10
2022-10-20T01:00:35.353Z,997.05
2022-10-20T01:01:35.309Z,997.11
2022-10-20T01:02:35.175Z,997.09
2022-10-20T01:03:35.075Z,997.09
2022-10-20T01:04:34.986Z,997.11
2022-10-20T01:05:34.894Z,997.07
2022-10-20T01:06:34.799Z,997.02
2022-10-20T01:07:35.042Z,997.02
2022-10-20T01:08:34.656Z,996.93
2022-10-20T01:09:34.512Z,996.95
2022-10-20T01:10:34.415Z,996.94
2022-10-20T01:11:34.328Z,996.93
2022-10-20T01:12:34.233Z,996.97
2022-10-20T01:13:34.127Z,996.98
2022-10-20T01:14:34.043Z,997.03
2022-10-20T01:15:33.952Z,997.03
2022-10-20T01:16:33.852Z,997.08
2022-10-20T01:17:34.104Z,997.01
2022-10-20T01:18:33.670Z,997.01
2022-10-20T01:19:33.571Z,997.02
2022-10-20T01:20:33.477Z,997.06
2022-10-20T01:21:33.381Z,997.07
2022-10-20T01:22:33.283Z,997.05
2022-10-20T01:23:33.195Z,997.04
2022-10-20T01:24:33.098Z,997.05
2022-10-20T01:25:33.004Z,996.98
2022-10-20T01:26:32.909Z,997.02
2022-10-20T01:27:33.125Z,996.98
2022-10-20T01:28:32.720Z,996.97
2022-10-20T01:29:32.624Z,996.94
2022-10-20T01:30:32.534Z,996.93
2022-10-20T01:31:32.439Z,996.91
2022-10-20T01:32:32.349Z,996.90
2022-10-20T01:33:32.251Z,996.90
2022-10-20T01:34:32.159Z,996.84
2022-10-20T01:35:32.061Z,996.89
2022-10-20T01:36:31.965Z,996.88
2022-10-20T01:37:48.412Z,996.83
2022-10-20T01:38:31.786Z,996.81
2022-10-20T01:39:31.680Z,996.82
2022-10-20T01:40:31.596Z,996.82
2022-10-20T01:41:31.495Z,996.78
2022-10-20T01:42:31.439Z,996.80
2022-10-20T01:43:31.306Z,996.78
2022-10-20T01:44:31.218Z,996.73
2022-10-20T01:45:31.115Z,996.73
2022-10-20T01:46:31.025Z,996.71
2022-10-20T01:47:30.924Z,996.70
2022-10-20T01:48:30.838Z,996.68
2022-10-20T01:49:30.740Z,996.67
2022-10-20T01:50:30.646Z,996.71
2022-10-20T01:51:30.565Z,996.69
2022-10-20T01:52:30.454Z,996.64
2022-10-20T01:53:30.364Z,996.66
2022-10-20T01:54:30.270Z,996.69
2022-10-20T01:55:30.178Z,996.66
2022-10-20T01:56:30.086Z,996.66
2022-10-20T01:57:29.985Z,996.63
2022-10-20T01:58:29.885Z,996.65
2022-10-20T01:59:29.794Z,996.67
2022-10-20T02:00:29.704Z,996.69
2022-10-20T02:01:29.716Z,996.71
2022-10-20T02:02:29.512Z,996.71
2022-10-20T02:03:29.415Z,996.69
2022-10-20T02:04:29.321Z,996.71
2022-10-20T02:05:29.226Z,996.72
2022-10-20T02:06:29.136Z,996.72
2022-10-20T02:07:29.041Z,996.70
2022-10-20T02:08:28.980Z,996.70
2022-10-20T02:09:28.850Z,996.62
2022-10-20T02:10:28.755Z,996.61
2022-10-20T02:11:28.657Z,996.59
2022-10-20T02:12:28.566Z,996.60
2022-10-20T02:13:28.466Z,996.55
2022-10-20T02:14:28.380Z,996.52
2022-10-20T02:15:28.291Z,996.49
2022-10-20T02:16:28.193Z,996.48
2022-10-20T02:17:28.093Z,996.51
2022-10-20T02:18:28.000Z,996.48
2022-10-20T02:19:27.908Z,996.42
2022-10-20T02:20:27.808Z,996.44
2022-10-20T02:21:27.716Z,996.43
2022-10-20T02:22:27.625Z,996.48
2022-10-20T02:23:27.525Z,996.49
2022-10-20T02:24:27.434Z,996.46
2022-10-20T02:25:27.340Z,996.41
2022-10-20T02:26:27.243Z,996.37
2022-10-20T02:27:27.149Z,996.37
2022-10-20T02:28:27.065Z,996.34
2022-10-20T02:29:26.960Z,996.28
2022-10-20T02:30:26.863Z,996.29
2022-10-20T02:31:26.771Z,996.33
2022-10-20T02:32:26.674Z,996.31
2022-10-20T02:33:26.579Z,996.30
2022-10-20T02:34:26.489Z,996.32
2022-10-20T02:35:26.392Z,996.32
2022-10-20T02:36:26.300Z,996.26
2022-10-20T02:37:26.205Z,996.26
2022-10-20T02:38:26.106Z,996.26
2022-10-20T02:39:26.015Z,996.27
2022-10-20T02:40:25.919Z,996.27
2022-10-20T02:41:25.829Z,996.24
2022-10-20T02:42:25.728Z,996.27
2022-10-20T02:43:25.634Z,996.30
2022-10-20T02:44:25.539Z,996.27
2022-10-20T02:45:25.442Z,996.32
2022-10-20T02:46:25.354Z,996.27
2022-10-20T02:47:25.253Z,996.27
2022-10-20T02:48:25.154Z,996.28
2022-10-20T02:49:25.065Z,996.25
2022-10-20T02:50:24.975Z,996.29
2022-10-20T02:51:24.872Z,996.29
2022-10-20T02:52:24.780Z,996.28
2022-10-20T02:53:24.681Z,996.21
2022-10-20T02:54:24.590Z,996.19
2022-10-20T02:55:24.506Z,996.15
2022-10-20T02:56:26.411Z,996.21
2022-10-20T02:57:24.309Z,996.15
2022-10-20T02:58:24.210Z,996.11
2022-10-20T02:59:24.114Z,996.14
2022-10-20T03:00:24.028Z,996.12
2022-10-20T03:01:23.966Z,996.08
2022-10-20T03:02:23.835Z,996.08
2022-10-20T03:03:23.732Z,996.04
2022-10-20T03:04:23.641Z,996.02
2022-10-20T03:05:23.552Z,995.98
2022-10-20T03:06:23.457Z,996.00
2022-10-20T03:07:23.358Z,995.99
2022-10-20T03:08:23.268Z,995.97
2022-10-20T03:09:23.174Z,995.99
2022-10-20T03:10:23.074Z,995.98
2022-10-20T03:11:22.982Z,995.94
2022-10-20T03:12:22.881Z,995.97
2022-10-20T03:13:22.830Z,995.94
2022-10-20T03:14:22.701Z,995.96
2022-10-20T03:15:22.593Z,995.92
2022-10-20T03:16:22.504Z,995.92
2022-10-20T03:17:22.410Z,995.90
2022-10-20T03:18:22.319Z,995.89
2022-10-20T03:19:22.221Z,995.86
2022-10-20T03:20:22.125Z,995.89
2022-10-20T03:21:22.031Z,995.88
2022-10-20T03:22:21.981Z,995.89
2022-10-20T03:23:21.839Z,995.91
2022-10-20T03:24:21.745Z,995.88
2022-10-20T03:25:21.648Z,995.85
2022-10-20T03:26:21.560Z,995.82
2022-10-20T03:27:21.458Z,995.81
2022-10-20T03:28:21.369Z,995.84
2022-10-20T03:29:21.274Z,995.78
2022-10-20T03:30:21.171Z,995.73
2022-10-20T03:31:21.082Z,995.76
2022-10-20T03:32:20.993Z,995.80
2022-10-20T03:33:20.895Z,995.74
2022-10-20T03:34:20.804Z,995.72
2022-10-20T03:35:20.707Z,995.73
2022-10-20T03:36:20.610Z,995.69
2022-10-20T03:37:20.516Z,995.69
2022-10-20T03:38:20.422Z,995.69
2022-10-20T03:39:20.323Z,995.70
2022-10-20T03:40:20.227Z,995.64
2022-10-20T03:41:20.133Z,995.62
2022-10-20T03:42:20.039Z,995.66
2022-10-20T03:43:19.949Z,995.65
2022-10-20T03:44:19.849Z,995.63
2022-10-20T03:45:19.754Z,995.68
2022-10-20T03:46:19.661Z,995.64
2022-10-20T03:47:19.572Z,995.57
2022-10-20T03:48:19.469Z,995.56
2022-10-20T03:49:19.381Z,995.63
2022-10-20T03:50:19.286Z,995.55
2022-10-20T03:51:19.183Z,995.56
2022-10-20T03:52:19.094Z,995.55
2022-10-20T03:53:18.992Z,995.54
2022-10-20T03:54:18.905Z,995.53
2022-10-20T03:55:18.811Z,995.49
2022-10-20T03:56:18.710Z,995.45
2022-10-20T03:57:18.615Z,995.43
2022-10-20T03:58:18.526Z,995.41
2022-10-20T03:59:18.428Z,995.43
2022-10-20T04:00:18.334Z,995.39
2022-10-20T04:01:18.252Z,995.39
2022-10-20T04:02:18.147Z,995.39
2022-10-20T04:03:18.047Z,995.39
2022-10-20T04:04:17.953Z,995.33
2022-10-20T04:05:17.858Z,995.31
2022-10-20T04:06:17.763Z,995.33
2022-10-20T04:07:17.667Z,995.32
2022-10-20T04:08:17.569Z,995.30
2022-10-20T04:09:17.480Z,995.27
2022-10-20T04:10:17.382Z,995.29
2022-10-20T04:11:17.286Z,995.26
2022-10-20T04:12:17.190Z,995.24
2022-10-20T04:13:17.097Z,995.26
2022-10-20T04:14:17.012Z,995.25
2022-10-20T04:15:16.908Z,995.28
2022-10-20T04:16:16.811Z,995.30
2022-10-20T04:17:16.713Z,995.29
2022-10-20T04:18:16.617Z,995.28
2022-10-20T04:19:16.523Z,995.27
2022-10-20T04:20:16.429Z,995.26
2022-10-20T04:21:16.332Z,995.25
2022-10-20T04:22:16.239Z,995.24
2022-10-20T04:23:16.141Z,995.25
2022-10-20T04:24:16.048Z,995.24
2022-10-20T04:25:15.957Z,995.21
2022-10-20T04:26:15.857Z,995.21
2022-10-20T04:27:15.767Z,995.17
2022-10-20T04:28:15.664Z,995.19
2022-10-20T04:29:15.615Z,995.13
2022-10-20T04:30:15.483Z,995.15
2022-10-20T04:31:15.384Z,995.11
2022-10-20T04:32:15.288Z,995.13
2022-10-20T04:33:15.189Z,995.14
2022-10-20T04:34:15.098Z,995.06
2022-10-20T04:35:15.002Z,995.09
2022-10-20T04:36:14.905Z,995.05
2022-10-20T04:37:14.815Z,995.03
2022-10-20T04:38:14.722Z,994.97
2022-10-20T04:39:14.624Z,994.94
2022-10-20T04:40:14.530Z,994.93
2022-10-20T04:41:14.433Z,994.89
2022-10-20T04:42:14.336Z,994.88
2022-10-20T04:43:14.244Z,994.83
2022-10-20T04:44:14.167Z,994.80
2022-10-20T04:45:14.045Z,994.79
2022-10-20T04:46:13.953Z,994.79
2022-10-20T04:47:13.862Z,994.73
2022-10-20T04:48:13.771Z,994.68
2022-10-20T04:49:13.666Z,994.67
2022-10-20T04:50:13.576Z,994.67
2022-10-20T04:51:13.483Z,994.67
2022-10-20T04:52:13.379Z,994.66
2022-10-20T04:53:13.293Z,994.64
2022-10-20T04:54:13.198Z,994.63
2022-10-20T04:55:13.098Z,994.62
2022-10-20T04:56:13.009Z,994.62
2022-10-20T04:57:12.915Z,994.65
2022-10-20T04:58:12.818Z,994.67
2022-10-20T04:59:13.811Z,994.67
2022-10-20T05:00:12.623Z,994.66
2022-10-20T05:01:12.558Z,994.61
2022-10-20T05:02:12.433Z,994.66
2022-10-20T05:03:12.351Z,994.63
2022-10-20T05:04:12.241Z,994.67
2022-10-20T05:05:12.144Z,994.71
2022-10-20T05:06:12.053Z,994.74
2022-10-20T05:07:11.960Z,994.72
2022-10-20T05:08:11.860Z,994.69
2022-10-20T05:09:11.834Z,994.67
2022-10-20T05:10:11.672Z,994.70
2022-10-20T05:11:11.575Z,994.65
2022-10-20T05:12:11.507Z,994.60
2022-10-20T05:13:11.384Z,994.58
2022-10-20T05:14:11.289Z,994.52
2022-10-20T05:15:11.193Z,994.51
2022-10-20T05:16:11.099Z,994.47
2022-10-20T05:17:11.009Z,994.44
2022-10-20T05:18:10.911Z,994.48
2022-10-20T05:19:10.807Z,994.51
2022-10-20T05:20:10.716Z,994.51
2022-10-20T05:21:10.629Z,994.52
2022-10-20T05:22:10.547Z,994.52
2022-10-20T05:23:10.447Z,994.46
2022-10-20T05:24:10.331Z,994.46
2022-10-20T05:25:35.027Z,994.47
2022-10-20T05:26:10.150Z,994.48
2022-10-20T05:27:10.051Z,994.44
2022-10-20T05:28:09.958Z,994.46
2022-10-20T05:29:09.864Z,994.44
2022-10-20T05:30:09.764Z,994.46
2022-10-20T05:31:09.665Z,994.47
2022-10-20T05:32:09.575Z,994.44
2022-10-20T05:33:09.479Z,994.46
2022-10-20T05:34:09.389Z,994.44
2022-10-20T05:35:09.289Z,994.42
2022-10-20T05:36:09.194Z,994.44
2022-10-20T05:37:09.093Z,994.46
2022-10-20T05:38:09.007Z,994.41
2022-10-20T05:39:08.904Z,994.45
2022-10-20T05:40:08.808Z,994.48
2022-10-20T05:41:08.712Z,994.43
2022-10-20T05:42:08.621Z,994.45
2022-10-20T05:43:08.524Z,994.44
2022-10-20T05:44:08.434Z,994.45
2022-10-20T05:45:08.333Z,994.47
2022-10-20T05:46:08.247Z,994.50
2022-10-20T05:47:08.138Z,994.51
2022-10-20T05:48:08.047Z,994.52
2022-10-20T05:49:07.951Z,994.48
2022-10-20T05:50:07.857Z,994.48
2022-10-20T05:51:09.495Z,994.44
2022-10-20T05:52:07.669Z,994.45
2022-10-20T05:53:07.568Z,994.44
2022-10-20T05:54:07.474Z,994.45
2022-10-20T05:55:07.378Z,994.47
2022-10-20T05:56:07.289Z,994.47
2022-10-20T05:57:07.188Z,994.39
2022-10-20T05:58:07.091Z,994.41
2022-10-20T05:59:06.992Z,994.42
2022-10-20T06:00:06.898Z,994.37
2022-10-20T06:01:06.807Z,994.40
2022-10-20T06:02:06.707Z,994.39
2022-10-20T06:03:06.613Z,994.41
2022-10-20T06:04:06.518Z,994.35
2022-10-20T06:05:06.427Z,994.28
2022-10-20T06:06:06.331Z,994.33
2022-10-20T06:07:06.234Z,994.33
2022-10-20T06:08:06.130Z,994.33
2022-10-20T06:09:06.121Z,994.35
2022-10-20T06:10:05.945Z,994.34
2022-10-20T06:11:05.853Z,994.30
2022-10-20T06:12:05.789Z,994.32
2022-10-20T06:13:05.658Z,994.26
2022-10-20T06:14:05.561Z,994.29
2022-10-20T06:15:05.461Z,994.28
2022-10-20T06:16:05.369Z,994.30
2022-10-20T06:17:05.284Z,994.30
2022-10-20T06:18:05.185Z,994.33
2022-10-20T06:19:05.085Z,994.36
2022-10-20T06:20:04.994Z,994.33
2022-10-20T06:21:04.894Z,994.36
2022-10-20T06:22:06.759Z,994.34
2022-10-20T06:23:04.705Z,994.30
2022-10-20T06:24:04.609Z,994.31
2022-10-20T06:25:04.581Z,994.32
2022-10-20T06:26:04.418Z,994.36
2022-10-20T06:27:04.330Z,994.41
2022-10-20T06:28:04.224Z,994.36
2022-10-20T06:29:04.960Z,994.40
2022-10-20T06:30:04.035Z,994.37
2022-10-20T06:31:03.942Z,994.42
2022-10-20T06:32:03.901Z,994.45
2022-10-20T06:33:03.754Z,994.38
2022-10-20T06:34:03.659Z,994.38
2022-10-20T06:35:03.564Z,994.35
2022-10-20T06:36:03.462Z,994.40
2022-10-20T06:37:03.367Z,994.43
2022-10-20T06:38:03.274Z,994.41
2022-10-20T06:39:03.178Z,994.44
2022-10-20T06:40:03.076Z,994.40
2022-10-20T06:41:02.992Z,994.42
2022-10-20T06:42:02.892Z,994.41
2022-10-20T06:43:02.828Z,994.43
2022-10-20T06:44:02.703Z,994.39
2022-10-20T06:45:02.636Z,994.37
2022-10-20T06:46:02.512Z,994.32
2022-10-20T06:47:02.416Z,994.29
2022-10-20T06:48:02.320Z,994.27
2022-10-20T06:49:02.235Z,994.27
2022-10-20T06:50:02.141Z,994.24
2022-10-20T06:51:02.033Z,994.26
2022-10-20T06:52:02.010Z,994.22
2022-10-20T06:53:01.849Z,994.24
2022-10-20T06:54:01.750Z,994.27
2022-10-20T06:55:01.657Z,994.27
2022-10-20T06:56:01.558Z,994.33
2022-10-20T06:57:01.464Z,994.32
2022-10-20T06:58:01.367Z,994.33
2022-10-20T06:59:01.276Z,994.33
2022-10-20T07:00:01.180Z,994.40
2022-10-20T07:01:01.994Z,994.40
2022-10-20T07:02:01.038Z,994.39
2022-10-20T07:03:00.895Z,994.41
2022-10-20T07:04:00.791Z,994.40
2022-10-20T07:05:00.703Z,994.35
2022-10-20T07:06:00.608Z,994.42
2022-10-20T07:07:00.514Z,994.39
2022-10-20T07:08:00.419Z,994.38
2022-10-20T07:09:00.370Z,994.41
2022-10-20T07:10:00.228Z,994.39
2022-10-20T07:11:00.131Z,994.38
2022-10-20T07:12:00.037Z,994.37
2022-10-20T07:12:59.943Z,994.37
2022-10-20T07:13:59.850Z,994.38
2022-10-20T07:14:59.751Z,994.34
2022-10-20T07:15:59.658Z,994.30
2022-10-20T07:16:59.563Z,994.25
2022-10-20T07:17:59.467Z,994.25
2022-10-20T07:18:59.375Z,994.25
2022-10-20T07:19:59.279Z,994.25
2022-10-20T07:20:59.181Z,994.26
2022-10-20T07:21:59.087Z,994.29
2022-10-20T07:22:58.991Z,994.21
2022-10-20T07:23:58.899Z,994.19
2022-10-20T07:24:58.807Z,994.17
2022-10-20T07:25:58.713Z,994.13
2022-10-20T07:26:58.614Z,994.09
2022-10-20T07:27:58.517Z,994.04
2022-10-20T07:28:58.427Z,994.01
2022-10-20T07:29:58.333Z,994.02
2022-10-20T07:30:58.235Z,994.02
2022-10-20T07:31:59.981Z,993.98
2022-10-20T07:32:58.045Z,993.95
2022-10-20T07:34:07.369Z,993.94
2022-10-20T07:34:57.853Z,993.92
2022-10-20T07:35:57.765Z,993.92
2022-10-20T07:36:57.675Z,993.89
2022-10-20T07:37:57.575Z,993.88
2022-10-20T07:38:57.479Z,993.90
2022-10-20T07:39:57.388Z,993.88
2022-10-20T07:40:59.421Z,993.90
2022-10-20T07:41:57.193Z,993.93
2022-10-20T07:42:57.100Z,993.93
2022-10-20T07:43:57.009Z,993.91
2022-10-20T07:44:56.925Z,993.91
2022-10-20T07:45:56.830Z,993.88
2022-10-20T07:46:56.725Z,993.86
2022-10-20T07:47:56.634Z,993.90
2022-10-20T07:49:02.727Z,993.87
2022-10-20T07:49:56.447Z,993.88
2022-10-20T07:50:56.349Z,993.88
2022-10-20T07:51:56.260Z,993.94
2022-10-20T07:52:56.169Z,993.95
2022-10-20T07:53:59.647Z,993.94
2022-10-20T07:55:06.336Z,993.87
2022-10-20T07:55:55.879Z,993.87
2022-10-20T07:56:55.786Z,993.87
2022-10-20T07:57:55.696Z,993.89
2022-10-20T07:58:55.602Z,993.94
2022-10-20T07:59:55.510Z,993.91
2022-10-20T08:00:55.414Z,993.87
2022-10-20T08:01:56.228Z,993.84
2022-10-20T08:02:55.226Z,993.85
2022-10-20T08:03:55.132Z,993.79
2022-10-20T08:04:55.037Z,993.82
2022-10-20T08:05:54.954Z,993.79
2022-10-20T08:06:54.851Z,993.83
2022-10-20T08:07:54.755Z,993.79
2022-10-20T08:08:54.718Z,993.82
2022-10-20T08:09:54.568Z,993.78
2022-10-20T08:10:54.476Z,993.79
2022-10-20T08:11:55.804Z,993.77
2022-10-20T08:12:54.295Z,993.77
2022-10-20T08:13:54.194Z,993.71
2022-10-20T08:14:54.115Z,993.69
2022-10-20T08:15:54.969Z,993.70
2022-10-20T08:16:54.474Z,993.72
2022-10-20T08:17:53.829Z,993.66
2022-10-20T08:19:58.975Z,993.64
2022-10-20T08:20:53.545Z,993.62
2022-10-20T08:21:53.453Z,993.65
2022-10-20T08:22:53.356Z,993.66
2022-10-20T08:23:53.270Z,993.67
2022-10-20T08:24:53.174Z,993.65
2022-10-20T08:25:53.079Z,993.67
2022-10-20T08:26:52.982Z,993.61
2022-10-20T08:27:52.920Z,993.59
2022-10-20T08:28:52.800Z,993.56
2022-10-20T08:30:00.325Z,993.61
2022-10-20T08:30:52.615Z,993.63
2022-10-20T08:31:52.525Z,993.65
2022-10-20T08:32:52.433Z,993.63
2022-10-20T08:33:53.230Z,993.60
2022-10-20T08:34:52.249Z,993.57
2022-10-20T08:35:52.153Z,993.58
2022-10-20T08:36:52.063Z,993.57
2022-10-20T08:37:51.967Z,993.57
2022-10-20T08:38:51.873Z,993.54
2022-10-20T08:39:51.784Z,993.55
2022-10-20T08:40:51.692Z,993.54
2022-10-20T08:42:08.945Z,993.55
2022-10-20T08:42:51.505Z,993.52
2022-10-20T08:43:51.414Z,993.50
2022-10-20T08:44:51.321Z,993.53
2022-10-20T08:45:51.227Z,993.49
2022-10-20T08:46:51.133Z,993.51
2022-10-20T08:47:51.039Z,993.52
2022-10-20T08:48:50.959Z,993.51
2022-10-20T08:49:50.861Z,993.50
2022-10-20T08:50:50.772Z,993.48
2022-10-20T08:51:50.674Z,993.43
2022-10-20T08:52:50.585Z,993.47
2022-10-20T08:53:50.489Z,993.44
2022-10-20T08:54:50.402Z,993.40
2022-10-20T08:55:50.306Z,993.36
2022-10-20T08:56:50.217Z,993.39
2022-10-20T08:57:50.140Z,993.36
2022-10-20T08:58:50.032Z,993.39
2022-10-20T08:59:49.945Z,993.39
2022-10-20T09:00:49.841Z,993.41
2022-10-20T09:01:49.801Z,993.34
2022-10-20T09:02:49.666Z,993.30
2022-10-20T09:03:49.573Z,993.28
2022-10-20T09:04:49.498Z,993.26
2022-10-20T09:05:49.385Z,993.25
2022-10-20T09:06:49.298Z,993.25
2022-10-20T09:07:49.206Z,993.31
2022-10-20T09:08:49.206Z,993.30
2022-10-20T09:09:49.024Z,993.28
2022-10-20T09:10:48.936Z,993.26
2022-10-20T09:11:48.841Z,993.24
2022-10-20T09:12:48.749Z,993.21
2022-10-20T09:14:48.572Z,993.18
2022-10-20T09:15:48.472Z,993.17
2022-10-20T09:16:59.943Z,993.22
2022-10-20T09:17:48.292Z,993.20
2022-10-20T09:18:48.197Z,993.23
2022-10-20T09:19:48.100Z,993.21
2022-10-20T09:20:48.018Z,993.26
2022-10-20T09:21:47.919Z,993.25
2022-10-20T09:22:47.833Z,993.27
2022-10-20T09:23:47.786Z,993.28
2022-10-20T09:24:47.655Z,993.24
2022-10-20T09:25:47.558Z,993.20
2022-10-20T09:26:59.061Z,993.17
2022-10-20T09:27:47.377Z,993.21
2022-10-20T09:29:02.157Z,993.24
2022-10-20T09:29:47.194Z,993.26
2022-10-20T09:30:47.115Z,993.31
2022-10-20T09:31:47.010Z,993.27
2022-10-20T09:32:47.992Z,993.27
2022-10-20T09:33:46.831Z,993.27
2022-10-20T09:34:46.740Z,993.21
2022-10-20T09:35:46.649Z,993.20
2022-10-20T09:36:46.564Z,993.20
2022-10-20T09:37:46.465Z,993.11
2022-10-20T09:38:46.371Z,993.13
2022-10-20T09:39:46.278Z,993.14
2022-10-20T09:40:46.195Z,993.13
2022-10-20T09:41:46.102Z,993.14
2022-10-20T09:42:46.013Z,993.09
2022-10-20T09:43:45.920Z,993.09
2022-10-20T09:44:45.827Z,993.14
2022-10-20T09:45:45.738Z,993.10
2022-10-20T09:46:45.666Z,993.11
2022-10-20T09:47:45.563Z,993.15
2022-10-20T09:48:45.467Z,993.15
2022-10-20T09:49:45.378Z,993.21
2022-10-20T09:50:45.286Z,993.16
2022-10-20T09:51:45.217Z,993.21
2022-10-20T09:52:45.106Z,993.25
2022-10-20T09:53:45.018Z,993.29
2022-10-20T09:54:44.925Z,993.25
2022-10-20T09:55:44.833Z,993.21
2022-10-20T09:56:44.739Z,993.25
2022-10-20T09:57:44.658Z,993.21
2022-10-20T09:58:44.555Z,993.19
2022-10-20T09:59:44.477Z,993.18
2022-10-20T10:00:44.403Z,993.15
2022-10-20T10:01:44.292Z,993.15
2022-10-20T10:02:44.195Z,993.21
2022-10-20T10:03:44.114Z,993.19
2022-10-20T10:04:44.019Z,993.16
2022-10-20T10:05:43.937Z,993.16
2022-10-20T10:06:43.842Z,993.17
2022-10-20T10:07:43.745Z,993.18
2022-10-20T10:08:43.720Z,993.17
2022-10-20T10:09:43.571Z,993.13
2022-10-20T10:10:43.475Z,993.10
2022-10-20T10:11:43.389Z,993.05
2022-10-20T10:12:43.301Z,993.02
2022-10-20T10:13:43.213Z,993.03
2022-10-20T10:14:43.121Z,993.00
2022-10-20T10:15:43.028Z,992.95
2022-10-20T10:16:42.943Z,992.96
2022-10-20T10:17:42.849Z,992.95
2022-10-20T10:18:46.869Z,992.91
2022-10-20T10:19:42.674Z,992.94
2022-10-20T10:20:42.588Z,992.92
2022-10-20T10:21:42.489Z,992.93
2022-10-20T10:22:42.399Z,992.90
2022-10-20T10:23:42.315Z,992.86
2022-10-20T10:24:42.220Z,992.83
2022-10-20T10:25:42.135Z,992.80
2022-10-20T10:26:42.041Z,992.77
2022-10-20T10:27:41.959Z,992.76
2022-10-20T10:28:41.869Z,992.71
2022-10-20T10:29:41.773Z,992.71
2022-10-20T10:30:41.686Z,992.67
2022-10-20T10:31:41.592Z,992.65
2022-10-20T10:32:41.508Z,992.60
2022-10-20T10:33:41.428Z,992.62
2022-10-20T10:34:41.322Z,992.63
2022-10-20T10:35:41.238Z,992.62
2022-10-20T10:36:41.151Z,992.63
2022-10-20T10:37:41.409Z,992.62
2022-10-20T10:38:40.970Z,992.56
2022-10-20T10:39:40.887Z,992.55
2022-10-20T10:40:40.792Z,992.54
2022-10-20T10:41:40.704Z,992.53
2022-10-20T10:42:40.616Z,992.50
2022-10-20T10:43:42.743Z,992.49
2022-10-20T10:44:40.435Z,992.42
2022-10-20T10:45:40.343Z,992.40
2022-10-20T10:46:40.294Z,992.40
2022-10-20T10:47:40.578Z,992.39
2022-10-20T10:48:40.079Z,992.37
2022-10-20T10:49:39.993Z,992.42
2022-10-20T10:50:39.898Z,992.39
2022-10-20T10:51:39.811Z,992.43
2022-10-20T10:52:39.720Z,992.41
2022-10-20T10:53:39.627Z,992.40
2022-10-20T10:54:39.601Z,992.39
2022-10-20T10:55:54.136Z,992.32
2022-10-20T10:56:39.370Z,992.30
2022-10-20T10:57:39.493Z,992.27
2022-10-20T10:58:39.190Z,992.20
2022-10-20T10:59:39.102Z,992.22
2022-10-20T11:00:39.033Z,992.18
2022-10-20T11:01:38.927Z,992.11
2022-10-20T11:02:39.315Z,992.09
2022-10-20T11:03:39.848Z,992.08
2022-10-20T11:04:38.705Z,991.97
2022-10-20T11:05:38.571Z,991.97
2022-10-20T11:06:38.481Z,991.95
2022-10-20T11:07:38.728Z,991.95
2022-10-20T11:08:38.359Z,991.94
2022-10-20T11:09:38.214Z,991.92
2022-10-20T11:10:38.129Z,991.91
2022-10-20T11:11:38.037Z,991.87
2022-10-20T11:12:37.952Z,991.82
2022-10-20T11:13:37.862Z,991.79
2022-10-20T11:14:37.771Z,991.84
2022-10-20T11:15:37.687Z,991.91
2022-10-20T11:16:37.604Z,991.90
2022-10-20T11:17:37.761Z,991.89
2022-10-20T11:18:37.428Z,991.88
2022-10-20T11:19:37.338Z,991.85
2022-10-20T11:20:37.244Z,991.85
2022-10-20T11:21:37.155Z,991.86
2022-10-20T11:22:37.071Z,991.86
2022-10-20T11:23:36.984Z,991.83
2022-10-20T11:24:36.894Z,991.73
2022-10-20T11:25:36.803Z,991.73
2022-10-20T11:26:36.719Z,991.71
2022-10-20T11:27:36.964Z,991.66
2022-10-20T11:28:36.539Z,991.62
2022-10-20T11:29:36.453Z,991.58
2022-10-20T11:30:36.364Z,991.57
2022-10-20T11:31:36.283Z,991.55
2022-10-20T11:33:38.054Z,991.48
2022-10-20T11:34:36.019Z,991.51
2022-10-20T11:35:35.932Z,991.49
2022-10-20T11:36:35.852Z,991.50
2022-10-20T11:37:36.110Z,991.45
2022-10-20T11:38:35.666Z,991.51
2022-10-20T11:39:35.585Z,991.51
2022-10-20T11:40:35.491Z,991.51
2022-10-20T11:41:35.459Z,991.49
2022-10-20T11:42:35.720Z,991.50
2022-10-20T11:43:35.229Z,991.45
2022-10-20T11:44:35.155Z,991.50
2022-10-20T11:45:35.060Z,991.45
2022-10-20T11:46:34.972Z,991.40
2022-10-20T11:47:34.882Z,991.40
2022-10-20T11:48:34.795Z,991.38
2022-10-20T11:49:34.712Z,991.35
2022-10-20T11:50:34.619Z,991.36
2022-10-20T11:51:34.533Z,991.31
2022-10-20T11:52:34.767Z,991.26
2022-10-20T11:53:34.361Z,991.18
2022-10-20T11:54:34.273Z,991.25
2022-10-20T11:55:34.188Z,991.20
2022-10-20T11:56:34.098Z,991.15
2022-10-20T11:57:34.016Z,991.11
2022-10-20T11:58:33.922Z,991.10
2022-10-20T11:59:33.839Z,991.17
2022-10-20T12:00:33.755Z,991.13
2022-10-20T12:01:33.737Z,991.12
2022-10-20T12:02:33.732Z,991.14
2022-10-20T12:03:33.491Z,991.15
2022-10-20T12:04:33.403Z,991.16
2022-10-20T12:05:33.324Z,991.16
2022-10-20T12:06:33.236Z,991.18
2022-10-20T12:07:33.147Z,991.15
2022-10-20T12:08:33.110Z,991.15
2022-10-20T12:09:32.979Z,991.14
2022-10-20T12:10:32.888Z,991.12
2022-10-20T12:11:32.803Z,991.06
2022-10-20T12:12:32.714Z,991.08
2022-10-20T12:13:32.633Z,991.05
2022-10-20T12:14:32.546Z,991.07
2022-10-20T12:15:32.454Z,991.09
2022-10-20T12:16:32.374Z,991.03
2022-10-20T12:17:32.289Z,991.01
2022-10-20T12:18:32.195Z,990.99
2022-10-20T12:19:32.110Z,990.96
2022-10-20T12:20:32.023Z,991.00
2022-10-20T12:21:34.386Z,990.92
2022-10-20T12:22:31.853Z,990.92
2022-10-20T12:23:31.770Z,990.95
2022-10-20T12:24:31.674Z,990.98
2022-10-20T12:25:31.602Z,990.96
2022-10-20T12:26:31.509Z,990.97
2022-10-20T12:27:31.419Z,991.01
2022-10-20T12:28:31.379Z,990.96
2022-10-20T12:29:31.248Z,990.99
2022-10-20T12:30:31.158Z,990.98